Janika — V2YK9 — position and weather

sailwx.info

Track history (hours):
 
Tides and Currents Weather Stations Pressure Air Temp Water Temp Dewpoint Dewpoint Depression Visibility Wind Speed Wind Dir Waves Ship Positions

Janika

Last reported at 2017-Mar-25 03:33 UTC. Time now 2017-Mar-25 03:44 UTC.
Position N 17°35' W 061°49'.

; draft 2.6 m.

Type: Tug. MMSI: 305732000.

Date/timePositionNaut miles runAvg speedWind from/ knotsBaromVisibWave heightAir tempDewpointWater temp
2017-Mar-25 03:33N 17°35' W 061°49'0 0.0
2017-Mar-24 23:26N 17°35' W 061°49'0 0.0
2017-Mar-24 22:33N 17°35' W 061°49'0 0.0
2017-Mar-24 21:33N 17°35' W 061°49'0 0.0
2017-Mar-24 20:33N 17°35' W 061°49'0 0.0
2017-Mar-24 19:33N 17°35' W 061°49'0 0.0
2017-Mar-24 18:33N 17°35' W 061°49'0 0.0
2017-Mar-24 17:33N 17°35' W 061°49'0 0.0
2017-Mar-24 16:33N 17°35' W 061°49'0 0.0
2017-Mar-24 15:33N 17°35' W 061°49'0 0.0
2017-Mar-24 14:32N 17°35' W 061°49'0 0.0
2017-Mar-24 13:33N 17°35' W 061°49'0 0.0
2017-Mar-24 12:33N 17°35' W 061°49'0 0.0
2017-Mar-24 11:33N 17°35' W 061°49'0 0.0
2017-Mar-24 10:33N 17°35' W 061°49'0 0.0
2017-Mar-24 09:33N 17°35' W 061°49'0 0.0
2017-Mar-24 08:33N 17°35' W 061°49'0 0.0
2017-Mar-24 07:33N 17°35' W 061°49'0 0.0
2017-Mar-24 06:33N 17°35' W 061°49'0 0.0
2017-Mar-24 05:33N 17°35' W 061°49'0 0.0
2017-Mar-24 04:33N 17°35' W 061°49'0 0.0
2017-Mar-24 03:33N 17°35' W 061°49'0 0.0
2017-Mar-24 02:33N 17°35' W 061°49'0 0.0
2017-Mar-24 01:33N 17°35' W 061°49'0 0.0
2017-Mar-23 23:33N 17°35' W 061°49'0 0.0
2017-Mar-23 22:33N 17°35' W 061°49'0 0.0
2017-Mar-23 21:33N 17°35' W 061°49'0 0.0
2017-Mar-23 20:33N 17°35' W 061°49'0 0.0
2017-Mar-23 19:33N 17°35' W 061°49'0 0.0
2017-Mar-23 18:33N 17°35' W 061°49'0 0.0
2017-Mar-23 17:33N 17°35' W 061°49'0 0.0
2017-Mar-23 16:33N 17°35' W 061°49'0 0.0
2017-Mar-23 15:33N 17°35' W 061°49'0 0.0
2017-Mar-23 14:33N 17°35' W 061°49'0 0.0
2017-Mar-23 13:33N 17°35' W 061°49'0 0.0
2017-Mar-23 09:32N 17°35' W 061°49'0 0.0
2017-Mar-23 08:33N 17°35' W 061°49'0 0.0
2017-Mar-23 07:33N 17°35' W 061°49'0 0.0
2017-Mar-23 06:33N 17°35' W 061°49'0 0.0
2017-Mar-23 05:33N 17°35' W 061°49'0 0.0
2017-Mar-23 04:33N 17°35' W 061°49'0 0.0
2017-Mar-23 03:33N 17°35' W 061°49'0 0.0
2017-Mar-23 02:33N 17°35' W 061°49'0 0.0
2017-Mar-22 21:06N 17°35' W 061°49'0 0.0
2017-Mar-22 20:26N 17°35' W 061°49'0 0.0
2017-Mar-22 19:33N 17°35' W 061°49'0 0.0
2017-Mar-22 18:33N 17°35' W 061°49'0 0.0
2017-Mar-22 17:33N 17°35' W 061°49'0 0.0
2017-Mar-22 16:33N 17°35' W 061°49'0 0.0
2017-Mar-22 15:33N 17°35' W 061°49'0 0.0
2017-Mar-22 13:28N 17°35' W 061°49'0 0.0
2017-Mar-22 12:33N 17°35' W 061°49'0 0.0
2017-Mar-22 11:33N 17°35' W 061°49'11 2.5
2017-Mar-22 07:06N 17°24' W 061°49'3 4.8
2017-Mar-22 06:33N 17°22' W 061°49'5 4.7
2017-Mar-22 05:33N 17°17' W 061°48'5 4.8
2017-Mar-22 04:33N 17°12' W 061°48'3 3.1
2017-Mar-22 03:33N 17°09' W 061°47'0 0.0
2017-Mar-22 02:33N 17°09' W 061°47'0 0.0
2017-Mar-22 01:33N 17°09' W 061°47'0 0.0
2017-Mar-22 00:33N 17°09' W 061°47'0 0.0
2017-Mar-21 23:33N 17°09' W 061°47'0 0.0
2017-Mar-21 22:33N 17°09' W 061°47'0 0.0
2017-Mar-21 21:33N 17°09' W 061°47'0 0.0
2017-Mar-21 20:33N 17°09' W 061°47'0 0.0
2017-Mar-21 19:33N 17°09' W 061°47'0 0.0
2017-Mar-21 18:33N 17°09' W 061°47'0 0.0
2017-Mar-21 17:33N 17°09' W 061°47'0 0.0
2017-Mar-21 16:33N 17°09' W 061°47'0 0.0
2017-Mar-21 15:33N 17°09' W 061°47'0 0.0
2017-Mar-21 14:33N 17°09' W 061°47'0 0.0
2017-Mar-21 13:33N 17°09' W 061°47'0 0.0
2017-Mar-21 12:33N 17°09' W 061°47'0 0.0
2017-Mar-21 11:33N 17°09' W 061°47'0 0.0
2017-Mar-21 10:33N 17°09' W 061°47'0 0.0
2017-Mar-21 09:33N 17°09' W 061°47'0 0.0
2017-Mar-21 08:33N 17°09' W 061°47'0 0.0
2017-Mar-21 07:33N 17°09' W 061°47'0 0.0
2017-Mar-21 06:33N 17°09' W 061°47'0 0.0
2017-Mar-21 05:33N 17°09' W 061°47'0 0.0
2017-Mar-21 04:33N 17°09' W 061°47'0 0.0
2017-Mar-21 03:33N 17°09' W 061°47'0 0.0
2017-Mar-21 02:33N 17°09' W 061°47'0 0.0
2017-Mar-21 01:33N 17°09' W 061°47'0 0.0
2017-Mar-21 00:33N 17°09' W 061°47'0 0.0
2017-Mar-20 23:33N 17°09' W 061°47'0 0.0
2017-Mar-20 22:33N 17°09' W 061°47'0 0.0
2017-Mar-20 21:33N 17°09' W 061°47'0 0.0
2017-Mar-20 20:33N 17°09' W 061°47'0 0.0
2017-Mar-20 19:33N 17°09' W 061°47'0 0.0
2017-Mar-20 18:33N 17°09' W 061°47'0 0.0
2017-Mar-20 17:33N 17°09' W 061°47'0 0.0
2017-Mar-20 16:33N 17°09' W 061°47'0 0.0
2017-Mar-20 15:33N 17°09' W 061°47'0 0.0
2017-Mar-20 14:33N 17°09' W 061°47'0 0.0
2017-Mar-20 13:33N 17°09' W 061°47'0 0.0
2017-Mar-20 12:33N 17°09' W 061°47'0 0.0
2017-Mar-20 11:33N 17°09' W 061°47'0 0.1
2017-Mar-20 10:33N 17°09' W 061°47'2 2.2
2017-Mar-20 09:33N 17°11' W 061°48'5 4.9
2017-Mar-20 08:33N 17°16' W 061°48'5 4.9
2017-Mar-20 07:33N 17°21' W 061°49'5 4.9
2017-Mar-20 06:33N 17°26' W 061°49'5 4.9
2017-Mar-20 05:33N 17°31' W 061°50'4 4.2
2017-Mar-20 04:33N 17°35' W 061°50'1 0.6
2017-Mar-20 03:33N 17°35' W 061°49'0 0.0
2017-Mar-20 02:33N 17°35' W 061°49'0 0.0
2017-Mar-20 01:33N 17°35' W 061°49'0 0.0
2017-Mar-20 00:33N 17°35' W 061°49'0 0.0
2017-Mar-19 23:33N 17°35' W 061°49'0 0.0
2017-Mar-19 22:33N 17°35' W 061°49'0 0.0
2017-Mar-19 21:33N 17°35' W 061°49'0 0.0
2017-Mar-19 20:33N 17°35' W 061°49'0 0.0
2017-Mar-19 19:33N 17°35' W 061°49'0 0.0
2017-Mar-19 18:33N 17°35' W 061°49'0 0.0
2017-Mar-19 17:33N 17°35' W 061°49'0 0.0
2017-Mar-19 16:33N 17°35' W 061°49'0 0.0
2017-Mar-19 15:33N 17°35' W 061°49'0 0.0
2017-Mar-19 14:33N 17°35' W 061°49'0 0.0
2017-Mar-19 13:33N 17°35' W 061°49'0 0.0
2017-Mar-19 12:33N 17°35' W 061°49'0 0.0
2017-Mar-19 11:33N 17°35' W 061°49'0 0.0
2017-Mar-19 10:33N 17°35' W 061°49'0 0.0
2017-Mar-19 09:33N 17°35' W 061°49'0 0.0
2017-Mar-19 08:33N 17°35' W 061°49'0 0.0
2017-Mar-19 07:33N 17°35' W 061°49'0 0.0
2017-Mar-19 06:33N 17°35' W 061°49'0 0.0
2017-Mar-19 05:33N 17°35' W 061°49'0 0.0
2017-Mar-19 04:33N 17°35' W 061°49'0 0.0
2017-Mar-19 03:33N 17°35' W 061°49'0 0.0
2017-Mar-19 02:33N 17°35' W 061°49'0 0.0
2017-Mar-19 01:33N 17°35' W 061°49'0 0.0
2017-Mar-19 00:33N 17°35' W 061°49'0 0.0
2017-Mar-18 23:33N 17°35' W 061°49'0 0.0
2017-Mar-18 22:33N 17°35' W 061°49'0 0.0
2017-Mar-18 21:33N 17°35' W 061°49'0 0.0
2017-Mar-18 20:33N 17°35' W 061°49'0 0.0
2017-Mar-18 19:33N 17°35' W 061°49'0 0.0
2017-Mar-18 18:33N 17°35' W 061°49'0 0.0
2017-Mar-18 17:33N 17°35' W 061°49'0 0.0
2017-Mar-18 16:33N 17°35' W 061°49'0 0.0
2017-Mar-18 15:33N 17°35' W 061°49'0 0.0
2017-Mar-18 14:33N 17°35' W 061°49'0 0.0
2017-Mar-18 13:33N 17°35' W 061°49'0 0.0
2017-Mar-18 12:33N 17°35' W 061°49'0 0.0
2017-Mar-18 11:33N 17°35' W 061°49'0 0.0
2017-Mar-18 10:33N 17°35' W 061°49'0 0.0
2017-Mar-18 09:33N 17°35' W 061°49'0 0.0
2017-Mar-18 08:33N 17°35' W 061°49'0 0.0
2017-Mar-18 07:33N 17°35' W 061°49'0 0.0
2017-Mar-18 06:33N 17°35' W 061°49'0 0.0
2017-Mar-18 05:33N 17°35' W 061°49'0 0.0
2017-Mar-18 04:33N 17°35' W 061°49'0 0.0
2017-Mar-18 03:33N 17°35' W 061°49'0 0.0
2017-Mar-18 02:33N 17°35' W 061°49'0 0.0
2017-Mar-18 01:33N 17°35' W 061°49'0 0.0
2017-Mar-18 00:33N 17°35' W 061°49'0 0.0
2017-Mar-17 23:33N 17°35' W 061°49'0 0.0
2017-Mar-17 22:33N 17°35' W 061°49'0 0.0
2017-Mar-17 21:33N 17°35' W 061°49'0 0.0
2017-Mar-17 20:33N 17°35' W 061°49'0 0.0
2017-Mar-17 19:33N 17°35' W 061°49'0 0.0
2017-Mar-17 18:33N 17°35' W 061°49'0 0.0
2017-Mar-17 17:33N 17°35' W 061°49'0 0.0
2017-Mar-17 16:33N 17°35' W 061°49'0 0.0
2017-Mar-17 15:33N 17°35' W 061°49'0 0.0
2017-Mar-17 14:33N 17°35' W 061°49'0 0.0
2017-Mar-17 13:33N 17°35' W 061°49'0 0.0
2017-Mar-17 12:33N 17°35' W 061°49'0 0.0
2017-Mar-17 11:33N 17°35' W 061°49'0 0.3
2017-Mar-17 10:33N 17°35' W 061°50'1 0.8
2017-Mar-17 09:33N 17°34' W 061°49'4 4.4
2017-Mar-17 08:33N 17°30' W 061°49'5 4.7
2017-Mar-17 07:33N 17°25' W 061°49'5 4.5
2017-Mar-17 06:33N 17°21' W 061°49'5 4.5
2017-Mar-17 05:33N 17°16' W 061°48'5 4.5
2017-Mar-17 04:33N 17°12' W 061°48'3 2.7
2017-Mar-17 03:33N 17°09' W 061°47'0 0.0
2017-Mar-17 02:33N 17°09' W 061°47'0 0.0
2017-Mar-17 01:33N 17°09' W 061°47'0 0.0
2017-Mar-17 00:33N 17°09' W 061°47'0 0.0
2017-Mar-16 23:33N 17°09' W 061°47'0 0.0
2017-Mar-16 22:33N 17°09' W 061°47'0 0.0
2017-Mar-16 21:33N 17°09' W 061°47'0 0.0
2017-Mar-16 20:33N 17°09' W 061°47'0 0.0
2017-Mar-16 19:33N 17°09' W 061°47'0 0.0
2017-Mar-16 18:33N 17°09' W 061°47'0 0.0
2017-Mar-16 17:33N 17°09' W 061°47'0 0.0
2017-Mar-16 16:33N 17°09' W 061°47'0 0.0
2017-Mar-16 15:33N 17°09' W 061°47'0 0.0
2017-Mar-16 14:33N 17°09' W 061°47'0 0.0
2017-Mar-16 13:33N 17°09' W 061°47'0 0.0
2017-Mar-16 12:33N 17°09' W 061°47'0 0.0
2017-Mar-16 11:33N 17°09' W 061°47'0 0.0
2017-Mar-16 10:33N 17°09' W 061°47'0 0.0
2017-Mar-16 09:33N 17°09' W 061°47'0 0.0
2017-Mar-16 08:33N 17°09' W 061°47'0 0.0
2017-Mar-16 07:33N 17°09' W 061°47'0 0.0
2017-Mar-16 06:33N 17°09' W 061°47'0 0.0
2017-Mar-16 05:33N 17°09' W 061°47'0 0.0
2017-Mar-16 04:33N 17°09' W 061°47'0 0.0
2017-Mar-16 03:33N 17°09' W 061°47'0 0.0
2017-Mar-16 02:33N 17°09' W 061°47'0 0.0
2017-Mar-16 01:33N 17°09' W 061°47'0 0.0
2017-Mar-16 00:33N 17°09' W 061°47'0 0.0
2017-Mar-15 23:33N 17°09' W 061°47'0 0.0
2017-Mar-15 22:33N 17°09' W 061°47'0 0.0
2017-Mar-15 21:33N 17°09' W 061°47'0 0.0
2017-Mar-15 20:33N 17°09' W 061°47'0 0.0
2017-Mar-15 19:33N 17°09' W 061°47'0 0.0
2017-Mar-15 18:33N 17°09' W 061°47'0 0.0
2017-Mar-15 17:33N 17°09' W 061°47'  
Track history (hours):
 
Tides and Currents Weather Stations Pressure Air Temp Water Temp Dewpoint Dewpoint Depression Visibility Wind Speed Wind Dir Waves Ship Positions

Janika

Last reported at 2017-Mar-25 03:33 UTC. Time now 2017-Mar-25 03:44 UTC.
Position N 17°35' W 061°49'.

; draft 2.6 m.

Type: Tug. MMSI: 305732000.

Date/timePositionNaut miles runAvg speedWind from/ knotsBaromVisibWave heightAir tempDewpointWater temp
2017-Mar-25 03:33N 17°35' W 061°49'0 0.0
2017-Mar-24 23:26N 17°35' W 061°49'0 0.0
2017-Mar-24 22:33N 17°35' W 061°49'0 0.0
2017-Mar-24 21:33N 17°35' W 061°49'0 0.0
2017-Mar-24 20:33N 17°35' W 061°49'0 0.0
2017-Mar-24 19:33N 17°35' W 061°49'0 0.0
2017-Mar-24 18:33N 17°35' W 061°49'0 0.0
2017-Mar-24 17:33N 17°35' W 061°49'0 0.0
2017-Mar-24 16:33N 17°35' W 061°49'0 0.0
2017-Mar-24 15:33N 17°35' W 061°49'0 0.0
2017-Mar-24 14:32N 17°35' W 061°49'0 0.0
2017-Mar-24 13:33N 17°35' W 061°49'0 0.0
2017-Mar-24 12:33N 17°35' W 061°49'0 0.0
2017-Mar-24 11:33N 17°35' W 061°49'0 0.0
2017-Mar-24 10:33N 17°35' W 061°49'0 0.0
2017-Mar-24 09:33N 17°35' W 061°49'0 0.0
2017-Mar-24 08:33N 17°35' W 061°49'0 0.0
2017-Mar-24 07:33N 17°35' W 061°49'0 0.0
2017-Mar-24 06:33N 17°35' W 061°49'0 0.0
2017-Mar-24 05:33N 17°35' W 061°49'0 0.0
2017-Mar-24 04:33N 17°35' W 061°49'0 0.0
2017-Mar-24 03:33N 17°35' W 061°49'0 0.0
2017-Mar-24 02:33N 17°35' W 061°49'0 0.0
2017-Mar-24 01:33N 17°35' W 061°49'0 0.0
2017-Mar-23 23:33N 17°35' W 061°49'0 0.0
2017-Mar-23 22:33N 17°35' W 061°49'0 0.0
2017-Mar-23 21:33N 17°35' W 061°49'0 0.0
2017-Mar-23 20:33N 17°35' W 061°49'0 0.0
2017-Mar-23 19:33N 17°35' W 061°49'0 0.0
2017-Mar-23 18:33N 17°35' W 061°49'0 0.0
2017-Mar-23 17:33N 17°35' W 061°49'0 0.0
2017-Mar-23 16:33N 17°35' W 061°49'0 0.0
2017-Mar-23 15:33N 17°35' W 061°49'0 0.0
2017-Mar-23 14:33N 17°35' W 061°49'0 0.0
2017-Mar-23 13:33N 17°35' W 061°49'0 0.0
2017-Mar-23 09:32N 17°35' W 061°49'0 0.0
2017-Mar-23 08:33N 17°35' W 061°49'0 0.0
2017-Mar-23 07:33N 17°35' W 061°49'0 0.0
2017-Mar-23 06:33N 17°35' W 061°49'0 0.0
2017-Mar-23 05:33N 17°35' W 061°49'0 0.0
2017-Mar-23 04:33N 17°35' W 061°49'0 0.0
2017-Mar-23 03:33N 17°35' W 061°49'0 0.0
2017-Mar-23 02:33N 17°35' W 061°49'0 0.0
2017-Mar-22 21:06N 17°35' W 061°49'0 0.0
2017-Mar-22 20:26N 17°35' W 061°49'0 0.0
2017-Mar-22 19:33N 17°35' W 061°49'0 0.0
2017-Mar-22 18:33N 17°35' W 061°49'0 0.0
2017-Mar-22 17:33N 17°35' W 061°49'0 0.0
2017-Mar-22 16:33N 17°35' W 061°49'0 0.0
2017-Mar-22 15:33N 17°35' W 061°49'0 0.0
2017-Mar-22 13:28N 17°35' W 061°49'0 0.0
2017-Mar-22 12:33N 17°35' W 061°49'0 0.0
2017-Mar-22 11:33N 17°35' W 061°49'11 2.5
2017-Mar-22 07:06N 17°24' W 061°49'3 4.8
2017-Mar-22 06:33N 17°22' W 061°49'5 4.7
2017-Mar-22 05:33N 17°17' W 061°48'5 4.8
2017-Mar-22 04:33N 17°12' W 061°48'3 3.1
2017-Mar-22 03:33N 17°09' W 061°47'0 0.0
2017-Mar-22 02:33N 17°09' W 061°47'0 0.0
2017-Mar-22 01:33N 17°09' W 061°47'0 0.0
2017-Mar-22 00:33N 17°09' W 061°47'0 0.0
2017-Mar-21 23:33N 17°09' W 061°47'0 0.0
2017-Mar-21 22:33N 17°09' W 061°47'0 0.0
2017-Mar-21 21:33N 17°09' W 061°47'0 0.0
2017-Mar-21 20:33N 17°09' W 061°47'0 0.0
2017-Mar-21 19:33N 17°09' W 061°47'0 0.0
2017-Mar-21 18:33N 17°09' W 061°47'0 0.0
2017-Mar-21 17:33N 17°09' W 061°47'0 0.0
2017-Mar-21 16:33N 17°09' W 061°47'0 0.0
2017-Mar-21 15:33N 17°09' W 061°47'0 0.0
2017-Mar-21 14:33N 17°09' W 061°47'0 0.0
2017-Mar-21 13:33N 17°09' W 061°47'0 0.0
2017-Mar-21 12:33N 17°09' W 061°47'0 0.0
2017-Mar-21 11:33N 17°09' W 061°47'0 0.0
2017-Mar-21 10:33N 17°09' W 061°47'0 0.0
2017-Mar-21 09:33N 17°09' W 061°47'0 0.0
2017-Mar-21 08:33N 17°09' W 061°47'0 0.0
2017-Mar-21 07:33N 17°09' W 061°47'0 0.0
2017-Mar-21 06:33N 17°09' W 061°47'0 0.0
2017-Mar-21 05:33N 17°09' W 061°47'0 0.0
2017-Mar-21 04:33N 17°09' W 061°47'0 0.0
2017-Mar-21 03:33N 17°09' W 061°47'0 0.0
2017-Mar-21 02:33N 17°09' W 061°47'0 0.0
2017-Mar-21 01:33N 17°09' W 061°47'0 0.0
2017-Mar-21 00:33N 17°09' W 061°47'0 0.0
2017-Mar-20 23:33N 17°09' W 061°47'0 0.0
2017-Mar-20 22:33N 17°09' W 061°47'0 0.0
2017-Mar-20 21:33N 17°09' W 061°47'0 0.0
2017-Mar-20 20:33N 17°09' W 061°47'0 0.0
2017-Mar-20 19:33N 17°09' W 061°47'0 0.0
2017-Mar-20 18:33N 17°09' W 061°47'0 0.0
2017-Mar-20 17:33N 17°09' W 061°47'0 0.0
2017-Mar-20 16:33N 17°09' W 061°47'0 0.0
2017-Mar-20 15:33N 17°09' W 061°47'0 0.0
2017-Mar-20 14:33N 17°09' W 061°47'0 0.0
2017-Mar-20 13:33N 17°09' W 061°47'0 0.0
2017-Mar-20 12:33N 17°09' W 061°47'0 0.0
2017-Mar-20 11:33N 17°09' W 061°47'0 0.1
2017-Mar-20 10:33N 17°09' W 061°47'2 2.2
2017-Mar-20 09:33N 17°11' W 061°48'5 4.9
2017-Mar-20 08:33N 17°16' W 061°48'5 4.9
2017-Mar-20 07:33N 17°21' W 061°49'5 4.9
2017-Mar-20 06:33N 17°26' W 061°49'5 4.9
2017-Mar-20 05:33N 17°31' W 061°50'4 4.2
2017-Mar-20 04:33N 17°35' W 061°50'1 0.6
2017-Mar-20 03:33N 17°35' W 061°49'0 0.0
2017-Mar-20 02:33N 17°35' W 061°49'0 0.0
2017-Mar-20 01:33N 17°35' W 061°49'0 0.0
2017-Mar-20 00:33N 17°35' W 061°49'0 0.0
2017-Mar-19 23:33N 17°35' W 061°49'0 0.0
2017-Mar-19 22:33N 17°35' W 061°49'0 0.0
2017-Mar-19 21:33N 17°35' W 061°49'0 0.0
2017-Mar-19 20:33N 17°35' W 061°49'0 0.0
2017-Mar-19 19:33N 17°35' W 061°49'0 0.0
2017-Mar-19 18:33N 17°35' W 061°49'0 0.0
2017-Mar-19 17:33N 17°35' W 061°49'0 0.0
2017-Mar-19 16:33N 17°35' W 061°49'0 0.0
2017-Mar-19 15:33N 17°35' W 061°49'0 0.0
2017-Mar-19 14:33N 17°35' W 061°49'0 0.0
2017-Mar-19 13:33N 17°35' W 061°49'0 0.0
2017-Mar-19 12:33N 17°35' W 061°49'0 0.0
2017-Mar-19 11:33N 17°35' W 061°49'0 0.0
2017-Mar-19 10:33N 17°35' W 061°49'0 0.0
2017-Mar-19 09:33N 17°35' W 061°49'0 0.0
2017-Mar-19 08:33N 17°35' W 061°49'0 0.0
2017-Mar-19 07:33N 17°35' W 061°49'0 0.0
2017-Mar-19 06:33N 17°35' W 061°49'0 0.0
2017-Mar-19 05:33N 17°35' W 061°49'0 0.0
2017-Mar-19 04:33N 17°35' W 061°49'0 0.0
2017-Mar-19 03:33N 17°35' W 061°49'0 0.0
2017-Mar-19 02:33N 17°35' W 061°49'0 0.0
2017-Mar-19 01:33N 17°35' W 061°49'0 0.0
2017-Mar-19 00:33N 17°35' W 061°49'0 0.0
2017-Mar-18 23:33N 17°35' W 061°49'0 0.0
2017-Mar-18 22:33N 17°35' W 061°49'0 0.0
2017-Mar-18 21:33N 17°35' W 061°49'0 0.0
2017-Mar-18 20:33N 17°35' W 061°49'0 0.0
2017-Mar-18 19:33N 17°35' W 061°49'0 0.0
2017-Mar-18 18:33N 17°35' W 061°49'0 0.0
2017-Mar-18 17:33N 17°35' W 061°49'0 0.0
2017-Mar-18 16:33N 17°35' W 061°49'0 0.0
2017-Mar-18 15:33N 17°35' W 061°49'0 0.0
2017-Mar-18 14:33N 17°35' W 061°49'0 0.0
2017-Mar-18 13:33N 17°35' W 061°49'0 0.0
2017-Mar-18 12:33N 17°35' W 061°49'0 0.0
2017-Mar-18 11:33N 17°35' W 061°49'0 0.0
2017-Mar-18 10:33N 17°35' W 061°49'0 0.0
2017-Mar-18 09:33N 17°35' W 061°49'0 0.0
2017-Mar-18 08:33N 17°35' W 061°49'0 0.0
2017-Mar-18 07:33N 17°35' W 061°49'0 0.0
2017-Mar-18 06:33N 17°35' W 061°49'0 0.0
2017-Mar-18 05:33N 17°35' W 061°49'0 0.0
2017-Mar-18 04:33N 17°35' W 061°49'0 0.0
2017-Mar-18 03:33N 17°35' W 061°49'0 0.0
2017-Mar-18 02:33N 17°35' W 061°49'0 0.0
2017-Mar-18 01:33N 17°35' W 061°49'0 0.0
2017-Mar-18 00:33N 17°35' W 061°49'0 0.0
2017-Mar-17 23:33N 17°35' W 061°49'0 0.0
2017-Mar-17 22:33N 17°35' W 061°49'0 0.0
2017-Mar-17 21:33N 17°35' W 061°49'0 0.0
2017-Mar-17 20:33N 17°35' W 061°49'0 0.0
2017-Mar-17 19:33N 17°35' W 061°49'0 0.0
2017-Mar-17 18:33N 17°35' W 061°49'0 0.0
2017-Mar-17 17:33N 17°35' W 061°49'0 0.0
2017-Mar-17 16:33N 17°35' W 061°49'0 0.0
2017-Mar-17 15:33N 17°35' W 061°49'0 0.0
2017-Mar-17 14:33N 17°35' W 061°49'0 0.0
2017-Mar-17 13:33N 17°35' W 061°49'0 0.0
2017-Mar-17 12:33N 17°35' W 061°49'0 0.0
2017-Mar-17 11:33N 17°35' W 061°49'0 0.3
2017-Mar-17 10:33N 17°35' W 061°50'1 0.8
2017-Mar-17 09:33N 17°34' W 061°49'4 4.4
2017-Mar-17 08:33N 17°30' W 061°49'5 4.7
2017-Mar-17 07:33N 17°25' W 061°49'5 4.5
2017-Mar-17 06:33N 17°21' W 061°49'5 4.5
2017-Mar-17 05:33N 17°16' W 061°48'5 4.5
2017-Mar-17 04:33N 17°12' W 061°48'3 2.7
2017-Mar-17 03:33N 17°09' W 061°47'0 0.0
2017-Mar-17 02:33N 17°09' W 061°47'0 0.0
2017-Mar-17 01:33N 17°09' W 061°47'0 0.0
2017-Mar-17 00:33N 17°09' W 061°47'0 0.0
2017-Mar-16 23:33N 17°09' W 061°47'0 0.0
2017-Mar-16 22:33N 17°09' W 061°47'0 0.0
2017-Mar-16 21:33N 17°09' W 061°47'0 0.0
2017-Mar-16 20:33N 17°09' W 061°47'0 0.0
2017-Mar-16 19:33N 17°09' W 061°47'0 0.0
2017-Mar-16 18:33N 17°09' W 061°47'0 0.0
2017-Mar-16 17:33N 17°09' W 061°47'0 0.0
2017-Mar-16 16:33N 17°09' W 061°47'0 0.0
2017-Mar-16 15:33N 17°09' W 061°47'0 0.0
2017-Mar-16 14:33N 17°09' W 061°47'0 0.0
2017-Mar-16 13:33N 17°09' W 061°47'0 0.0
2017-Mar-16 12:33N 17°09' W 061°47'0 0.0
2017-Mar-16 11:33N 17°09' W 061°47'0 0.0
2017-Mar-16 10:33N 17°09' W 061°47'0 0.0
2017-Mar-16 09:33N 17°09' W 061°47'0 0.0
2017-Mar-16 08:33N 17°09' W 061°47'0 0.0
2017-Mar-16 07:33N 17°09' W 061°47'0 0.0
2017-Mar-16 06:33N 17°09' W 061°47'0 0.0
2017-Mar-16 05:33N 17°09' W 061°47'0 0.0
2017-Mar-16 04:33N 17°09' W 061°47'0 0.0
2017-Mar-16 03:33N 17°09' W 061°47'0 0.0
2017-Mar-16 02:33N 17°09' W 061°47'0 0.0
2017-Mar-16 01:33N 17°09' W 061°47'0 0.0
2017-Mar-16 00:33N 17°09' W 061°47'0 0.0
2017-Mar-15 23:33N 17°09' W 061°47'0 0.0
2017-Mar-15 22:33N 17°09' W 061°47'0 0.0
2017-Mar-15 21:33N 17°09' W 061°47'0 0.0
2017-Mar-15 20:33N 17°09' W 061°47'0 0.0
2017-Mar-15 19:33N 17°09' W 061°47'0 0.0
2017-Mar-15 18:33N 17°09' W 061°47'0 0.0
2017-Mar-15 17:33N 17°09' W 061°47'  

Dump ship's entire track history